sensor_id;sensor_type;location;lat;lon;timestamp;P1;durP1;ratioP1;P2;durP2;ratioP2
14984;SDS011;7588;62.368;25.902;2022-10-16T00:01:18;35.53;;;21.87;;
14984;SDS011;7588;62.368;25.902;2022-10-16T00:03:47;31.97;;;21.53;;
14984;SDS011;7588;62.368;25.902;2022-10-16T00:06:14;33.00;;;22.30;;
14984;SDS011;7588;62.368;25.902;2022-10-16T00:08:41;33.80;;;22.77;;
14984;SDS011;7588;62.368;25.902;2022-10-16T00:11:08;34.20;;;23.13;;
14984;SDS011;7588;62.368;25.902;2022-10-16T00:13:37;30.43;;;22.50;;
14984;SDS011;7588;62.368;25.902;2022-10-16T00:16:04;36.13;;;22.80;;
14984;SDS011;7588;62.368;25.902;2022-10-16T00:18:30;37.03;;;22.93;;
14984;SDS011;7588;62.368;25.902;2022-10-16T00:21:00;38.03;;;23.37;;
14984;SDS011;7588;62.368;25.902;2022-10-16T00:23:32;38.73;;;23.03;;
14984;SDS011;7588;62.368;25.902;2022-10-16T00:25:59;37.33;;;23.10;;
14984;SDS011;7588;62.368;25.902;2022-10-16T00:28:28;35.13;;;23.67;;
14984;SDS011;7588;62.368;25.902;2022-10-16T00:30:54;34.20;;;23.10;;
14984;SDS011;7588;62.368;25.902;2022-10-16T00:33:20;33.43;;;22.57;;
14984;SDS011;7588;62.368;25.902;2022-10-16T00:35:46;36.73;;;24.03;;
14984;SDS011;7588;62.368;25.902;2022-10-16T00:38:12;36.40;;;24.77;;
14984;SDS011;7588;62.368;25.902;2022-10-16T00:40:38;31.90;;;22.63;;
14984;SDS011;7588;62.368;25.902;2022-10-16T00:43:09;38.13;;;24.47;;
14984;SDS011;7588;62.368;25.902;2022-10-16T00:45:39;36.17;;;23.53;;
14984;SDS011;7588;62.368;25.902;2022-10-16T00:48:06;37.87;;;24.93;;
14984;SDS011;7588;62.368;25.902;2022-10-16T00:50:36;34.20;;;23.57;;
14984;SDS011;7588;62.368;25.902;2022-10-16T00:53:02;41.83;;;25.10;;
14984;SDS011;7588;62.368;25.902;2022-10-16T00:55:28;45.07;;;26.53;;
14984;SDS011;7588;62.368;25.902;2022-10-16T00:57:55;43.90;;;25.57;;
14984;SDS011;7588;62.368;25.902;2022-10-16T01:00:23;39.57;;;25.50;;
14984;SDS011;7588;62.368;25.902;2022-10-16T01:03:01;42.33;;;26.30;;
14984;SDS011;7588;62.368;25.902;2022-10-16T01:05:36;43.43;;;26.60;;
14984;SDS011;7588;62.368;25.902;2022-10-16T01:08:13;36.63;;;25.43;;
14984;SDS011;7588;62.368;25.902;2022-10-16T01:21:08;39.93;;;25.13;;
14984;SDS011;7588;62.368;25.902;2022-10-16T01:28:47;43.27;;;25.17;;
14984;SDS011;7588;62.368;25.902;2022-10-16T01:31:19;40.63;;;24.80;;
14984;SDS011;7588;62.368;25.902;2022-10-16T01:33:48;41.13;;;24.93;;
14984;SDS011;7588;62.368;25.902;2022-10-16T01:36:22;38.10;;;24.47;;
14984;SDS011;7588;62.368;25.902;2022-10-16T01:38:52;36.90;;;24.00;;
14984;SDS011;7588;62.368;25.902;2022-10-16T01:41:31;36.77;;;24.27;;
14984;SDS011;7588;62.368;25.902;2022-10-16T01:44:04;37.20;;;24.20;;
14984;SDS011;7588;62.368;25.902;2022-10-16T01:46:58;38.67;;;24.53;;
14984;SDS011;7588;62.368;25.902;2022-10-16T01:49:25;32.67;;;23.00;;
14984;SDS011;7588;62.368;25.902;2022-10-16T01:51:57;37.13;;;24.90;;
14984;SDS011;7588;62.368;25.902;2022-10-16T01:54:26;34.23;;;24.17;;
14984;SDS011;7588;62.368;25.902;2022-10-16T01:56:55;33.07;;;23.03;;
14984;SDS011;7588;62.368;25.902;2022-10-16T01:59:23;35.70;;;23.87;;
14984;SDS011;7588;62.368;25.902;2022-10-16T02:01:58;35.07;;;22.47;;
14984;SDS011;7588;62.368;25.902;2022-10-16T02:04:28;36.37;;;23.80;;
14984;SDS011;7588;62.368;25.902;2022-10-16T02:07:05;34.50;;;23.50;;
14984;SDS011;7588;62.368;25.902;2022-10-16T02:09:34;31.83;;;23.20;;
14984;SDS011;7588;62.368;25.902;2022-10-16T02:12:03;38.10;;;22.43;;
14984;SDS011;7588;62.368;25.902;2022-10-16T02:14:33;37.03;;;23.37;;
14984;SDS011;7588;62.368;25.902;2022-10-16T02:17:09;33.37;;;22.90;;
14984;SDS011;7588;62.368;25.902;2022-10-16T02:19:40;36.33;;;22.40;;
14984;SDS011;7588;62.368;25.902;2022-10-16T02:22:08;32.63;;;22.53;;
14984;SDS011;7588;62.368;25.902;2022-10-16T02:32:50;33.47;;;22.30;;
14984;SDS011;7588;62.368;25.902;2022-10-16T02:35:18;31.83;;;21.87;;
14984;SDS011;7588;62.368;25.902;2022-10-16T02:37:46;35.57;;;23.67;;
14984;SDS011;7588;62.368;25.902;2022-10-16T02:40:14;31.67;;;22.27;;
14984;SDS011;7588;62.368;25.902;2022-10-16T02:42:40;34.10;;;23.53;;
14984;SDS011;7588;62.368;25.902;2022-10-16T02:45:07;34.47;;;22.67;;
14984;SDS011;7588;62.368;25.902;2022-10-16T02:47:34;35.37;;;23.43;;
14984;SDS011;7588;62.368;25.902;2022-10-16T02:50:00;37.70;;;23.97;;
14984;SDS011;7588;62.368;25.902;2022-10-16T02:52:26;35.70;;;24.90;;
14984;SDS011;7588;62.368;25.902;2022-10-16T02:54:52;39.67;;;24.67;;
14984;SDS011;7588;62.368;25.902;2022-10-16T02:57:18;36.87;;;24.83;;
14984;SDS011;7588;62.368;25.902;2022-10-16T02:59:44;41.20;;;24.70;;
14984;SDS011;7588;62.368;25.902;2022-10-16T03:02:10;44.13;;;26.37;;
14984;SDS011;7588;62.368;25.902;2022-10-16T03:04:36;39.47;;;26.63;;
14984;SDS011;7588;62.368;25.902;2022-10-16T03:07:02;42.20;;;26.90;;
14984;SDS011;7588;62.368;25.902;2022-10-16T03:09:28;38.33;;;25.77;;
14984;SDS011;7588;62.368;25.902;2022-10-16T03:11:54;42.67;;;27.07;;
14984;SDS011;7588;62.368;25.902;2022-10-16T03:14:20;43.23;;;26.67;;
14984;SDS011;7588;62.368;25.902;2022-10-16T03:16:46;43.83;;;28.27;;
14984;SDS011;7588;62.368;25.902;2022-10-16T03:19:12;40.07;;;25.83;;
14984;SDS011;7588;62.368;25.902;2022-10-16T03:21:38;40.33;;;26.90;;
14984;SDS011;7588;62.368;25.902;2022-10-16T03:24:04;42.17;;;26.73;;
14984;SDS011;7588;62.368;25.902;2022-10-16T03:26:29;43.07;;;28.17;;
14984;SDS011;7588;62.368;25.902;2022-10-16T03:28:55;47.70;;;27.63;;
14984;SDS011;7588;62.368;25.902;2022-10-16T03:31:21;44.17;;;26.97;;
14984;SDS011;7588;62.368;25.902;2022-10-16T03:33:47;46.63;;;28.60;;
14984;SDS011;7588;62.368;25.902;2022-10-16T03:36:13;46.47;;;27.83;;
14984;SDS011;7588;62.368;25.902;2022-10-16T03:38:38;47.40;;;27.90;;
14984;SDS011;7588;62.368;25.902;2022-10-16T03:41:04;47.20;;;28.80;;
14984;SDS011;7588;62.368;25.902;2022-10-16T03:43:32;46.07;;;27.53;;
14984;SDS011;7588;62.368;25.902;2022-10-16T03:45:58;47.07;;;29.60;;
14984;SDS011;7588;62.368;25.902;2022-10-16T03:48:24;40.73;;;26.80;;
14984;SDS011;7588;62.368;25.902;2022-10-16T03:50:49;40.33;;;27.23;;
14984;SDS011;7588;62.368;25.902;2022-10-16T03:53:16;42.57;;;26.57;;
14984;SDS011;7588;62.368;25.902;2022-10-16T03:55:42;45.53;;;27.40;;
14984;SDS011;7588;62.368;25.902;2022-10-16T03:58:09;40.50;;;25.73;;
14984;SDS011;7588;62.368;25.902;2022-10-16T04:00:35;40.47;;;25.80;;
14984;SDS011;7588;62.368;25.902;2022-10-16T04:03:01;39.10;;;25.07;;
14984;SDS011;7588;62.368;25.902;2022-10-16T04:05:26;41.73;;;26.87;;
14984;SDS011;7588;62.368;25.902;2022-10-16T04:07:52;50.93;;;28.87;;
14984;SDS011;7588;62.368;25.902;2022-10-16T04:10:18;40.57;;;26.73;;
14984;SDS011;7588;62.368;25.902;2022-10-16T04:12:44;45.70;;;28.20;;
14984;SDS011;7588;62.368;25.902;2022-10-16T04:15:10;41.47;;;25.13;;
14984;SDS011;7588;62.368;25.902;2022-10-16T04:17:35;42.53;;;26.93;;
14984;SDS011;7588;62.368;25.902;2022-10-16T04:20:01;47.93;;;28.13;;
14984;SDS011;7588;62.368;25.902;2022-10-16T04:22:27;40.43;;;26.73;;
14984;SDS011;7588;62.368;25.902;2022-10-16T04:24:53;47.90;;;29.17;;
14984;SDS011;7588;62.368;25.902;2022-10-16T04:27:19;43.17;;;26.87;;
14984;SDS011;7588;62.368;25.902;2022-10-16T04:29:45;44.10;;;27.23;;
14984;SDS011;7588;62.368;25.902;2022-10-16T04:32:10;53.83;;;28.43;;
14984;SDS011;7588;62.368;25.902;2022-10-16T04:34:36;46.30;;;29.50;;
14984;SDS011;7588;62.368;25.902;2022-10-16T04:37:04;44.57;;;27.77;;
14984;SDS011;7588;62.368;25.902;2022-10-16T04:39:30;45.17;;;27.97;;
14984;SDS011;7588;62.368;25.902;2022-10-16T04:41:55;49.80;;;27.73;;
14984;SDS011;7588;62.368;25.902;2022-10-16T04:44:21;43.63;;;27.57;;
14984;SDS011;7588;62.368;25.902;2022-10-16T04:46:47;47.57;;;28.07;;
14984;SDS011;7588;62.368;25.902;2022-10-16T04:49:16;45.90;;;27.13;;
14984;SDS011;7588;62.368;25.902;2022-10-16T04:51:41;46.97;;;28.10;;
14984;SDS011;7588;62.368;25.902;2022-10-16T04:54:08;53.80;;;27.97;;
14984;SDS011;7588;62.368;25.902;2022-10-16T04:56:34;49.83;;;28.33;;
14984;SDS011;7588;62.368;25.902;2022-10-16T04:59:07;47.00;;;28.57;;
14984;SDS011;7588;62.368;25.902;2022-10-16T05:01:34;48.23;;;28.13;;
14984;SDS011;7588;62.368;25.902;2022-10-16T05:04:00;52.23;;;29.17;;
14984;SDS011;7588;62.368;25.902;2022-10-16T05:06:26;45.90;;;28.20;;
14984;SDS011;7588;62.368;25.902;2022-10-16T05:08:52;47.67;;;28.27;;
14984;SDS011;7588;62.368;25.902;2022-10-16T05:11:18;48.23;;;28.77;;
14984;SDS011;7588;62.368;25.902;2022-10-16T05:13:43;41.97;;;27.63;;
14984;SDS011;7588;62.368;25.902;2022-10-16T05:16:09;43.87;;;27.20;;
14984;SDS011;7588;62.368;25.902;2022-10-16T05:18:35;45.67;;;26.63;;
14984;SDS011;7588;62.368;25.902;2022-10-16T05:21:00;44.53;;;27.33;;
14984;SDS011;7588;62.368;25.902;2022-10-16T05:23:26;47.93;;;27.83;;
14984;SDS011;7588;62.368;25.902;2022-10-16T05:25:53;44.73;;;25.67;;
14984;SDS011;7588;62.368;25.902;2022-10-16T05:28:20;43.37;;;27.17;;
14984;SDS011;7588;62.368;25.902;2022-10-16T05:30:46;43.40;;;26.77;;
14984;SDS011;7588;62.368;25.902;2022-10-16T05:33:12;44.20;;;27.27;;
14984;SDS011;7588;62.368;25.902;2022-10-16T05:35:38;48.33;;;28.00;;
14984;SDS011;7588;62.368;25.902;2022-10-16T05:38:04;46.53;;;27.93;;
14984;SDS011;7588;62.368;25.902;2022-10-16T05:40:29;44.97;;;27.93;;
14984;SDS011;7588;62.368;25.902;2022-10-16T05:42:55;45.13;;;27.97;;
14984;SDS011;7588;62.368;25.902;2022-10-16T05:45:21;43.37;;;27.33;;
14984;SDS011;7588;62.368;25.902;2022-10-16T05:47:47;44.07;;;27.00;;
14984;SDS011;7588;62.368;25.902;2022-10-16T05:50:12;42.73;;;26.90;;
14984;SDS011;7588;62.368;25.902;2022-10-16T05:52:38;43.67;;;25.33;;
14984;SDS011;7588;62.368;25.902;2022-10-16T05:55:04;42.37;;;25.83;;
14984;SDS011;7588;62.368;25.902;2022-10-16T05:57:30;42.80;;;25.80;;
14984;SDS011;7588;62.368;25.902;2022-10-16T05:59:56;43.67;;;27.23;;
14984;SDS011;7588;62.368;25.902;2022-10-16T06:02:22;41.60;;;26.57;;
14984;SDS011;7588;62.368;25.902;2022-10-16T06:04:47;46.27;;;28.63;;
14984;SDS011;7588;62.368;25.902;2022-10-16T06:07:13;49.83;;;28.27;;
14984;SDS011;7588;62.368;25.902;2022-10-16T06:09:39;44.47;;;28.13;;
14984;SDS011;7588;62.368;25.902;2022-10-16T06:12:05;44.77;;;28.23;;
14984;SDS011;7588;62.368;25.902;2022-10-16T06:14:30;44.47;;;28.43;;
14984;SDS011;7588;62.368;25.902;2022-10-16T06:16:56;47.97;;;28.63;;
14984;SDS011;7588;62.368;25.902;2022-10-16T06:19:22;47.10;;;29.83;;
14984;SDS011;7588;62.368;25.902;2022-10-16T06:21:48;44.67;;;30.37;;
14984;SDS011;7588;62.368;25.902;2022-10-16T06:24:13;49.27;;;29.83;;
14984;SDS011;7588;62.368;25.902;2022-10-16T06:26:39;43.27;;;27.33;;
14984;SDS011;7588;62.368;25.902;2022-10-16T06:29:05;44.83;;;28.43;;
14984;SDS011;7588;62.368;25.902;2022-10-16T06:31:31;41.77;;;28.03;;
14984;SDS011;7588;62.368;25.902;2022-10-16T06:33:58;46.13;;;28.17;;
14984;SDS011;7588;62.368;25.902;2022-10-16T06:36:25;50.00;;;30.47;;
14984;SDS011;7588;62.368;25.902;2022-10-16T06:38:51;47.37;;;29.60;;
14984;SDS011;7588;62.368;25.902;2022-10-16T06:41:18;46.23;;;29.00;;
14984;SDS011;7588;62.368;25.902;2022-10-16T06:43:45;49.07;;;30.50;;
14984;SDS011;7588;62.368;25.902;2022-10-16T06:46:12;47.70;;;29.20;;
14984;SDS011;7588;62.368;25.902;2022-10-16T06:48:39;44.57;;;28.03;;
14984;SDS011;7588;62.368;25.902;2022-10-16T06:51:12;47.50;;;29.57;;
14984;SDS011;7588;62.368;25.902;2022-10-16T06:53:44;46.40;;;27.87;;
14984;SDS011;7588;62.368;25.902;2022-10-16T06:56:23;45.47;;;27.83;;
14984;SDS011;7588;62.368;25.902;2022-10-16T06:58:51;46.30;;;28.83;;
14984;SDS011;7588;62.368;25.902;2022-10-16T07:01:19;44.77;;;28.00;;
14984;SDS011;7588;62.368;25.902;2022-10-16T07:03:46;46.67;;;28.83;;
14984;SDS011;7588;62.368;25.902;2022-10-16T07:06:13;46.90;;;29.10;;
14984;SDS011;7588;62.368;25.902;2022-10-16T07:08:42;43.77;;;28.43;;
14984;SDS011;7588;62.368;25.902;2022-10-16T07:11:09;45.23;;;27.63;;
14984;SDS011;7588;62.368;25.902;2022-10-16T07:13:39;44.57;;;27.73;;
14984;SDS011;7588;62.368;25.902;2022-10-16T07:16:16;50.93;;;26.83;;
14984;SDS011;7588;62.368;25.902;2022-10-16T07:18:43;45.57;;;28.23;;
14984;SDS011;7588;62.368;25.902;2022-10-16T07:21:12;49.33;;;27.87;;
14984;SDS011;7588;62.368;25.902;2022-10-16T07:23:39;49.03;;;29.20;;
14984;SDS011;7588;62.368;25.902;2022-10-16T07:26:06;45.10;;;26.60;;
14984;SDS011;7588;62.368;25.902;2022-10-16T07:28:32;43.53;;;27.63;;
14984;SDS011;7588;62.368;25.902;2022-10-16T07:31:05;40.37;;;27.27;;
14984;SDS011;7588;62.368;25.902;2022-10-16T07:33:33;42.13;;;26.23;;
14984;SDS011;7588;62.368;25.902;2022-10-16T07:36:00;46.10;;;28.37;;
14984;SDS011;7588;62.368;25.902;2022-10-16T07:38:26;41.87;;;27.03;;
14984;SDS011;7588;62.368;25.902;2022-10-16T07:40:58;46.27;;;28.83;;
14984;SDS011;7588;62.368;25.902;2022-10-16T07:43:26;45.50;;;28.13;;
14984;SDS011;7588;62.368;25.902;2022-10-16T07:45:52;47.90;;;29.33;;
14984;SDS011;7588;62.368;25.902;2022-10-16T07:48:18;42.13;;;27.83;;
14984;SDS011;7588;62.368;25.902;2022-10-16T07:50:44;48.07;;;29.07;;
14984;SDS011;7588;62.368;25.902;2022-10-16T07:53:10;47.07;;;28.60;;
14984;SDS011;7588;62.368;25.902;2022-10-16T07:55:37;47.83;;;28.73;;
14984;SDS011;7588;62.368;25.902;2022-10-16T07:58:03;46.00;;;27.50;;
14984;SDS011;7588;62.368;25.902;2022-10-16T08:00:29;46.60;;;28.70;;
14984;SDS011;7588;62.368;25.902;2022-10-16T08:02:56;44.77;;;27.30;;
14984;SDS011;7588;62.368;25.902;2022-10-16T08:05:25;43.87;;;28.03;;
14984;SDS011;7588;62.368;25.902;2022-10-16T08:07:55;44.77;;;26.87;;
14984;SDS011;7588;62.368;25.902;2022-10-16T08:10:21;47.27;;;28.30;;
14984;SDS011;7588;62.368;25.902;2022-10-16T08:12:49;39.47;;;25.10;;
14984;SDS011;7588;62.368;25.902;2022-10-16T08:15:16;41.87;;;27.37;;
14984;SDS011;7588;62.368;25.902;2022-10-16T08:17:42;45.70;;;27.63;;
14984;SDS011;7588;62.368;25.902;2022-10-16T08:20:08;39.27;;;24.70;;
14984;SDS011;7588;62.368;25.902;2022-10-16T08:22:34;41.00;;;26.10;;
14984;SDS011;7588;62.368;25.902;2022-10-16T08:25:00;39.67;;;24.37;;
14984;SDS011;7588;62.368;25.902;2022-10-16T08:27:30;42.43;;;25.70;;
14984;SDS011;7588;62.368;25.902;2022-10-16T08:29:59;42.83;;;26.73;;
14984;SDS011;7588;62.368;25.902;2022-10-16T08:32:24;39.60;;;25.83;;
14984;SDS011;7588;62.368;25.902;2022-10-16T08:34:50;43.90;;;26.53;;
14984;SDS011;7588;62.368;25.902;2022-10-16T08:37:16;41.83;;;25.37;;
14984;SDS011;7588;62.368;25.902;2022-10-16T08:39:42;40.37;;;24.93;;
14984;SDS011;7588;62.368;25.902;2022-10-16T08:50:27;37.47;;;23.20;;
14984;SDS011;7588;62.368;25.902;2022-10-16T08:52:54;37.30;;;23.00;;
14984;SDS011;7588;62.368;25.902;2022-10-16T08:55:29;36.53;;;23.67;;
14984;SDS011;7588;62.368;25.902;2022-10-16T08:57:59;34.57;;;23.07;;
14984;SDS011;7588;62.368;25.902;2022-10-16T09:00:26;36.63;;;23.40;;
14984;SDS011;7588;62.368;25.902;2022-10-16T09:08:08;30.43;;;19.43;;
14984;SDS011;7588;62.368;25.902;2022-10-16T09:11:12;29.33;;;18.47;;
14984;SDS011;7588;62.368;25.902;2022-10-16T09:13:51;29.57;;;19.40;;
14984;SDS011;7588;62.368;25.902;2022-10-16T09:16:43;27.70;;;20.33;;
14984;SDS011;7588;62.368;25.902;2022-10-16T09:21:56;27.43;;;18.33;;
14984;SDS011;7588;62.368;25.902;2022-10-16T09:24:25;26.20;;;16.70;;
14984;SDS011;7588;62.368;25.902;2022-10-16T09:26:51;26.40;;;18.87;;
14984;SDS011;7588;62.368;25.902;2022-10-16T09:29:18;26.77;;;18.67;;
14984;SDS011;7588;62.368;25.902;2022-10-16T09:31:46;25.17;;;17.80;;
14984;SDS011;7588;62.368;25.902;2022-10-16T09:34:33;25.93;;;16.83;;
14984;SDS011;7588;62.368;25.902;2022-10-16T09:37:05;23.37;;;16.97;;
14984;SDS011;7588;62.368;25.902;2022-10-16T09:39:47;24.97;;;17.03;;
14984;SDS011;7588;62.368;25.902;2022-10-16T09:44:48;22.03;;;16.20;;
14984;SDS011;7588;62.368;25.902;2022-10-16T09:47:17;21.90;;;16.07;;
14984;SDS011;7588;62.368;25.902;2022-10-16T09:49:56;21.17;;;15.67;;
14984;SDS011;7588;62.368;25.902;2022-10-16T09:52:31;23.60;;;16.97;;
14984;SDS011;7588;62.368;25.902;2022-10-16T09:54:59;22.07;;;15.90;;
14984;SDS011;7588;62.368;25.902;2022-10-16T09:57:27;20.43;;;15.07;;
14984;SDS011;7588;62.368;25.902;2022-10-16T09:59:54;20.10;;;15.57;;
14984;SDS011;7588;62.368;25.902;2022-10-16T10:02:30;19.27;;;13.80;;
14984;SDS011;7588;62.368;25.902;2022-10-16T10:05:00;18.23;;;14.07;;
14984;SDS011;7588;62.368;25.902;2022-10-16T10:07:28;19.97;;;15.13;;
14984;SDS011;7588;62.368;25.902;2022-10-16T10:09:59;20.93;;;14.57;;
14984;SDS011;7588;62.368;25.902;2022-10-16T10:12:29;19.33;;;14.80;;
14984;SDS011;7588;62.368;25.902;2022-10-16T10:14:58;16.40;;;12.90;;
14984;SDS011;7588;62.368;25.902;2022-10-16T10:17:29;17.77;;;13.23;;
14984;SDS011;7588;62.368;25.902;2022-10-16T10:19:59;19.70;;;13.70;;
14984;SDS011;7588;62.368;25.902;2022-10-16T10:30:25;14.07;;;11.40;;
14984;SDS011;7588;62.368;25.902;2022-10-16T10:38:59;12.03;;;10.63;;
14984;SDS011;7588;62.368;25.902;2022-10-16T11:01:18;11.47;;;9.80;;
14984;SDS011;7588;62.368;25.902;2022-10-16T11:04:15;11.47;;;10.20;;
14984;SDS011;7588;62.368;25.902;2022-10-16T11:06:55;11.10;;;9.37;;
14984;SDS011;7588;62.368;25.902;2022-10-16T11:14:31;12.13;;;9.23;;
14984;SDS011;7588;62.368;25.902;2022-10-16T11:17:07;11.03;;;9.60;;
14984;SDS011;7588;62.368;25.902;2022-10-16T11:19:39;10.40;;;9.00;;
14984;SDS011;7588;62.368;25.902;2022-10-16T11:22:22;10.47;;;9.23;;
14984;SDS011;7588;62.368;25.902;2022-10-16T11:35:47;8.70;;;7.77;;
14984;SDS011;7588;62.368;25.902;2022-10-16T11:46:31;7.87;;;7.00;;
14984;SDS011;7588;62.368;25.902;2022-10-16T11:49:03;7.80;;;7.00;;
14984;SDS011;7588;62.368;25.902;2022-10-16T11:51:38;7.93;;;6.17;;
14984;SDS011;7588;62.368;25.902;2022-10-16T11:54:25;7.40;;;6.17;;
14984;SDS011;7588;62.368;25.902;2022-10-16T11:56:59;7.77;;;6.97;;
14984;SDS011;7588;62.368;25.902;2022-10-16T11:59:41;7.13;;;6.47;;
14984;SDS011;7588;62.368;25.902;2022-10-16T12:08:10;6.13;;;5.53;;
14984;SDS011;7588;62.368;25.902;2022-10-16T12:10:36;7.70;;;6.77;;
14984;SDS011;7588;62.368;25.902;2022-10-16T12:13:04;6.83;;;6.13;;
14984;SDS011;7588;62.368;25.902;2022-10-16T12:15:32;7.67;;;6.13;;
14984;SDS011;7588;62.368;25.902;2022-10-16T12:17:58;5.93;;;5.40;;
14984;SDS011;7588;62.368;25.902;2022-10-16T12:20:29;6.57;;;5.87;;
14984;SDS011;7588;62.368;25.902;2022-10-16T12:23:04;6.47;;;5.83;;
14984;SDS011;7588;62.368;25.902;2022-10-16T12:25:31;5.83;;;5.33;;
14984;SDS011;7588;62.368;25.902;2022-10-16T12:28:40;6.60;;;5.87;;
14984;SDS011;7588;62.368;25.902;2022-10-16T12:30:55;6.53;;;5.83;;
14984;SDS011;7588;62.368;25.902;2022-10-16T12:35:58;6.97;;;6.27;;
14984;SDS011;7588;62.368;25.902;2022-10-16T12:41:10;6.70;;;6.00;;
14984;SDS011;7588;62.368;25.902;2022-10-16T12:48:33;7.30;;;6.07;;
14984;SDS011;7588;62.368;25.902;2022-10-16T12:51:10;7.13;;;5.83;;
14984;SDS011;7588;62.368;25.902;2022-10-16T12:53:37;6.40;;;5.80;;
14984;SDS011;7588;62.368;25.902;2022-10-16T13:01:36;6.30;;;5.70;;
14984;SDS011;7588;62.368;25.902;2022-10-16T13:23:15;6.83;;;5.57;;
14984;SDS011;7588;62.368;25.902;2022-10-16T13:26:05;6.17;;;5.67;;
14984;SDS011;7588;62.368;25.902;2022-10-16T13:28:41;6.47;;;5.77;;
14984;SDS011;7588;62.368;25.902;2022-10-16T13:31:13;6.30;;;5.70;;
14984;SDS011;7588;62.368;25.902;2022-10-16T13:33:52;6.23;;;5.63;;
14984;SDS011;7588;62.368;25.902;2022-10-16T13:36:33;6.43;;;5.83;;
14984;SDS011;7588;62.368;25.902;2022-10-16T13:39:12;8.10;;;5.80;;
14984;SDS011;7588;62.368;25.902;2022-10-16T13:41:42;7.63;;;6.43;;
14984;SDS011;7588;62.368;25.902;2022-10-16T13:44:25;6.07;;;5.27;;
14984;SDS011;7588;62.368;25.902;2022-10-16T13:46:58;7.23;;;5.67;;
14984;SDS011;7588;62.368;25.902;2022-10-16T13:49:25;7.10;;;5.50;;
14984;SDS011;7588;62.368;25.902;2022-10-16T13:51:55;6.30;;;5.70;;
14984;SDS011;7588;62.368;25.902;2022-10-16T13:54:23;6.83;;;5.80;;
14984;SDS011;7588;62.368;25.902;2022-10-16T13:56:50;6.40;;;5.40;;
14984;SDS011;7588;62.368;25.902;2022-10-16T13:59:23;6.90;;;5.63;;
14984;SDS011;7588;62.368;25.902;2022-10-16T14:01:58;5.87;;;5.30;;
14984;SDS011;7588;62.368;25.902;2022-10-16T14:04:25;6.53;;;5.80;;
14984;SDS011;7588;62.368;25.902;2022-10-16T14:06:56;7.70;;;5.90;;
14984;SDS011;7588;62.368;25.902;2022-10-16T14:12:02;5.83;;;5.30;;
14984;SDS011;7588;62.368;25.902;2022-10-16T14:14:40;6.70;;;5.90;;
14984;SDS011;7588;62.368;25.902;2022-10-16T14:17:27;6.17;;;5.40;;
14984;SDS011;7588;62.368;25.902;2022-10-16T14:19:55;8.13;;;5.80;;
14984;SDS011;7588;62.368;25.902;2022-10-16T14:22:35;6.83;;;5.83;;
14984;SDS011;7588;62.368;25.902;2022-10-16T14:33:20;7.63;;;6.37;;
14984;SDS011;7588;62.368;25.902;2022-10-16T14:35:46;8.93;;;6.30;;
14984;SDS011;7588;62.368;25.902;2022-10-16T14:38:24;8.73;;;6.63;;
14984;SDS011;7588;62.368;25.902;2022-10-16T14:40:51;8.37;;;6.80;;
14984;SDS011;7588;62.368;25.902;2022-10-16T14:43:21;8.37;;;6.97;;
14984;SDS011;7588;62.368;25.902;2022-10-16T14:45:54;8.00;;;6.37;;
14984;SDS011;7588;62.368;25.902;2022-10-16T14:48:21;8.27;;;7.03;;
14984;SDS011;7588;62.368;25.902;2022-10-16T14:50:48;9.53;;;7.50;;
14984;SDS011;7588;62.368;25.902;2022-10-16T14:53:13;8.73;;;7.00;;
14984;SDS011;7588;62.368;25.902;2022-10-16T14:55:39;8.53;;;7.43;;
14984;SDS011;7588;62.368;25.902;2022-10-16T14:58:20;11.87;;;7.37;;
14984;SDS011;7588;62.368;25.902;2022-10-16T15:00:47;9.67;;;7.40;;
14984;SDS011;7588;62.368;25.902;2022-10-16T15:03:14;11.23;;;7.47;;
14984;SDS011;7588;62.368;25.902;2022-10-16T15:05:40;9.97;;;7.43;;
14984;SDS011;7588;62.368;25.902;2022-10-16T15:08:05;9.43;;;6.93;;
14984;SDS011;7588;62.368;25.902;2022-10-16T15:10:33;8.93;;;7.13;;
14984;SDS011;7588;62.368;25.902;2022-10-16T15:13:04;9.67;;;7.73;;
14984;SDS011;7588;62.368;25.902;2022-10-16T15:15:32;8.73;;;7.43;;
14984;SDS011;7588;62.368;25.902;2022-10-16T15:18:17;11.40;;;6.97;;
14984;SDS011;7588;62.368;25.902;2022-10-16T15:20:45;9.43;;;7.30;;
14984;SDS011;7588;62.368;25.902;2022-10-16T15:23:13;12.27;;;7.67;;
14984;SDS011;7588;62.368;25.902;2022-10-16T15:25:47;10.27;;;7.57;;
14984;SDS011;7588;62.368;25.902;2022-10-16T15:28:15;8.43;;;7.00;;
14984;SDS011;7588;62.368;25.902;2022-10-16T15:30:42;8.73;;;7.40;;
14984;SDS011;7588;62.368;25.902;2022-10-16T15:33:14;9.77;;;6.63;;
14984;SDS011;7588;62.368;25.902;2022-10-16T15:35:41;7.87;;;6.17;;
14984;SDS011;7588;62.368;25.902;2022-10-16T15:38:10;8.10;;;6.87;;
14984;SDS011;7588;62.368;25.902;2022-10-16T15:40:37;9.13;;;7.10;;
14984;SDS011;7588;62.368;25.902;2022-10-16T15:43:03;9.03;;;6.90;;
14984;SDS011;7588;62.368;25.902;2022-10-16T15:45:29;8.73;;;7.17;;
14984;SDS011;7588;62.368;25.902;2022-10-16T15:47:55;8.33;;;6.80;;
14984;SDS011;7588;62.368;25.902;2022-10-16T15:50:20;10.00;;;7.27;;
14984;SDS011;7588;62.368;25.902;2022-10-16T15:52:46;11.83;;;7.93;;
14984;SDS011;7588;62.368;25.902;2022-10-16T15:55:13;9.17;;;7.77;;
14984;SDS011;7588;62.368;25.902;2022-10-16T15:57:39;8.90;;;7.27;;
14984;SDS011;7588;62.368;25.902;2022-10-16T16:00:09;8.60;;;7.50;;
14984;SDS011;7588;62.368;25.902;2022-10-16T16:02:43;9.97;;;7.50;;
14984;SDS011;7588;62.368;25.902;2022-10-16T16:05:14;9.30;;;7.63;;
14984;SDS011;7588;62.368;25.902;2022-10-16T16:07:40;8.23;;;6.97;;
14984;SDS011;7588;62.368;25.902;2022-10-16T16:10:06;9.57;;;7.63;;
14984;SDS011;7588;62.368;25.902;2022-10-16T16:12:33;10.47;;;7.10;;
14984;SDS011;7588;62.368;25.902;2022-10-16T16:14:59;8.50;;;7.60;;
14984;SDS011;7588;62.368;25.902;2022-10-16T16:17:25;9.70;;;7.97;;
14984;SDS011;7588;62.368;25.902;2022-10-16T16:19:51;8.90;;;7.63;;
14984;SDS011;7588;62.368;25.902;2022-10-16T16:22:17;8.40;;;7.00;;
14984;SDS011;7588;62.368;25.902;2022-10-16T16:24:43;8.63;;;7.13;;
14984;SDS011;7588;62.368;25.902;2022-10-16T16:27:08;9.00;;;6.77;;
14984;SDS011;7588;62.368;25.902;2022-10-16T16:29:34;7.30;;;6.50;;
14984;SDS011;7588;62.368;25.902;2022-10-16T16:32:00;6.90;;;5.90;;
14984;SDS011;7588;62.368;25.902;2022-10-16T16:34:27;8.10;;;5.93;;
14984;SDS011;7588;62.368;25.902;2022-10-16T16:36:54;7.07;;;6.20;;
14984;SDS011;7588;62.368;25.902;2022-10-16T16:39:20;10.83;;;6.77;;
14984;SDS011;7588;62.368;25.902;2022-10-16T16:41:47;7.20;;;6.13;;
14984;SDS011;7588;62.368;25.902;2022-10-16T16:44:13;6.73;;;5.90;;
14984;SDS011;7588;62.368;25.902;2022-10-16T16:46:40;7.40;;;6.27;;
14984;SDS011;7588;62.368;25.902;2022-10-16T16:49:08;7.50;;;5.93;;
14984;SDS011;7588;62.368;25.902;2022-10-16T16:51:35;8.10;;;6.40;;
14984;SDS011;7588;62.368;25.902;2022-10-16T16:54:01;9.27;;;6.23;;
14984;SDS011;7588;62.368;25.902;2022-10-16T16:56:27;8.47;;;6.40;;
14984;SDS011;7588;62.368;25.902;2022-10-16T16:58:54;8.13;;;6.23;;
14984;SDS011;7588;62.368;25.902;2022-10-16T17:01:21;7.23;;;6.43;;
14984;SDS011;7588;62.368;25.902;2022-10-16T17:03:50;8.40;;;6.43;;
14984;SDS011;7588;62.368;25.902;2022-10-16T17:06:18;7.83;;;5.97;;
14984;SDS011;7588;62.368;25.902;2022-10-16T17:08:45;7.63;;;6.40;;
14984;SDS011;7588;62.368;25.902;2022-10-16T17:11:22;8.43;;;6.57;;